createdAt,value
2022-08-30T00:00:39.439Z,18.70
2022-08-30T00:03:10.581Z,18.70
2022-08-30T00:05:39.841Z,18.70
2022-08-30T00:08:09.169Z,18.70
2022-08-30T00:10:38.902Z,18.60
2022-08-30T00:13:12.200Z,18.40
2022-08-30T00:15:41.386Z,18.50
2022-08-30T00:18:10.793Z,18.50
2022-08-30T00:20:40.487Z,18.60
2022-08-30T00:23:09.115Z,18.60
2022-08-30T00:25:37.834Z,18.50
2022-08-30T00:28:06.726Z,18.40
2022-08-30T00:30:39.915Z,18.50
2022-08-30T00:33:09.070Z,18.50
2022-08-30T00:35:38.907Z,18.40
2022-08-30T00:38:07.831Z,18.30
2022-08-30T00:40:38.028Z,18.40
2022-08-30T00:43:14.127Z,18.50
2022-08-30T00:45:44.959Z,18.40
2022-08-30T00:48:13.642Z,18.30
2022-08-30T00:50:46.550Z,18.20
2022-08-30T00:53:20.860Z,18.30
2022-08-30T00:55:50.637Z,18.10
2022-08-30T00:58:24.575Z,18.20
2022-08-30T01:00:58.036Z,18.20
2022-08-30T01:03:26.992Z,18.00
2022-08-30T01:05:55.957Z,17.90
2022-08-30T01:08:24.771Z,18.00
2022-08-30T01:10:55.832Z,18.00
2022-08-30T01:13:25.243Z,17.90
2022-08-30T01:15:56.563Z,18.00
2022-08-30T01:18:26.804Z,18.10
2022-08-30T01:21:03.838Z,18.00
2022-08-30T01:23:36.111Z,18.00
2022-08-30T01:26:08.128Z,18.10
2022-08-30T01:28:37.673Z,18.00
2022-08-30T01:31:06.944Z,17.90
2022-08-30T01:33:37.811Z,17.90
2022-08-30T01:36:08.373Z,18.00
2022-08-30T01:38:43.292Z,18.00
2022-08-30T01:41:16.891Z,17.90
2022-08-30T01:43:46.996Z,17.80
2022-08-30T01:46:16.813Z,17.70
2022-08-30T01:48:50.331Z,17.70
2022-08-30T01:51:24.173Z,17.50
2022-08-30T01:53:55.131Z,17.60
2022-08-30T01:56:24.409Z,17.50
2022-08-30T01:58:54.274Z,17.50
2022-08-30T02:01:27.666Z,17.50
2022-08-30T02:03:57.661Z,17.50
2022-08-30T02:06:26.339Z,17.50
2022-08-30T02:08:56.999Z,17.60
2022-08-30T02:11:25.615Z,17.70
2022-08-30T02:13:54.186Z,17.80
2022-08-30T02:16:26.374Z,17.80
2022-08-30T02:18:56.404Z,17.70
2022-08-30T02:21:26.200Z,17.60
2022-08-30T02:23:56.899Z,17.60
2022-08-30T02:26:26.561Z,17.60
2022-08-30T02:28:55.625Z,17.60
2022-08-30T02:31:28.179Z,17.70
2022-08-30T02:33:57.788Z,17.70
2022-08-30T02:36:27.028Z,17.70
2022-08-30T02:38:57.612Z,17.70
2022-08-30T02:41:26.325Z,17.80
2022-08-30T02:43:58.570Z,17.80
2022-08-30T02:46:27.579Z,17.70
2022-08-30T02:49:13.164Z,17.60
2022-08-30T02:51:51.056Z,17.70
2022-08-30T02:54:21.580Z,17.70
2022-08-30T02:56:51.180Z,17.60
2022-08-30T02:59:20.606Z,17.60
2022-08-30T03:01:51.219Z,17.60
2022-08-30T03:04:22.466Z,17.60
2022-08-30T03:06:55.513Z,17.60
2022-08-30T03:09:25.622Z,17.60
2022-08-30T03:11:54.563Z,17.60
2022-08-30T03:14:23.268Z,17.60
2022-08-30T03:16:52.108Z,17.60
2022-08-30T03:19:21.685Z,17.60
2022-08-30T03:21:50.744Z,17.60
2022-08-30T03:24:19.851Z,17.60
2022-08-30T03:26:50.043Z,17.50
2022-08-30T03:29:18.840Z,17.50
2022-08-30T03:31:52.885Z,17.50
2022-08-30T03:34:23.422Z,17.40
2022-08-30T03:36:53.045Z,17.40
2022-08-30T03:39:23.269Z,17.50
2022-08-30T03:41:53.964Z,17.30
2022-08-30T03:44:22.889Z,17.30
2022-08-30T03:46:52.160Z,17.30
2022-08-30T03:49:21.728Z,17.20
2022-08-30T03:51:50.339Z,17.30
2022-08-30T03:54:19.565Z,17.20
2022-08-30T03:56:48.685Z,17.20
2022-08-30T03:59:19.264Z,17.20
2022-08-30T04:01:48.104Z,16.90
2022-08-30T04:04:20.767Z,17.00
2022-08-30T04:06:50.704Z,16.90
2022-08-30T04:09:20.512Z,16.80
2022-08-30T04:11:49.478Z,16.70
2022-08-30T04:14:20.096Z,16.70
2022-08-30T04:16:48.541Z,16.80
2022-08-30T04:19:18.091Z,16.80
2022-08-30T04:21:47.604Z,16.80
2022-08-30T04:24:16.224Z,16.80
2022-08-30T04:26:45.242Z,16.80
2022-08-30T04:29:16.756Z,16.80
2022-08-30T04:31:47.628Z,16.70
2022-08-30T04:34:17.690Z,16.70
2022-08-30T04:36:48.189Z,16.80
2022-08-30T04:39:17.092Z,16.90
2022-08-30T04:41:46.288Z,16.90
2022-08-30T04:44:19.278Z,17.00
2022-08-30T04:46:50.031Z,17.00
2022-08-30T04:49:18.784Z,17.00
2022-08-30T04:51:47.679Z,17.00
2022-08-30T04:54:19.877Z,17.00
2022-08-30T04:56:48.576Z,17.10
2022-08-30T04:59:17.680Z,17.10
2022-08-30T05:01:46.724Z,17.00
2022-08-30T05:04:17.429Z,17.00
2022-08-30T05:06:46.169Z,17.00
2022-08-30T05:09:15.192Z,17.10
2022-08-30T05:11:44.367Z,17.10
2022-08-30T05:14:13.260Z,17.10
2022-08-30T05:16:42.865Z,17.10
2022-08-30T05:19:11.657Z,17.20
2022-08-30T05:21:41.975Z,17.20
2022-08-30T05:24:10.775Z,17.30
2022-08-30T05:26:40.489Z,17.30
2022-08-30T05:29:09.245Z,17.30
2022-08-30T05:31:38.461Z,17.30
2022-08-30T05:34:07.659Z,17.40
2022-08-30T05:36:38.790Z,17.50
2022-08-30T05:39:10.676Z,17.50
2022-08-30T05:41:40.323Z,17.50
2022-08-30T05:44:10.798Z,17.50
2022-08-30T05:46:43.234Z,17.50
2022-08-30T05:49:11.866Z,17.60
2022-08-30T05:51:42.946Z,17.60
2022-08-30T05:54:14.448Z,17.60
2022-08-30T05:56:45.494Z,17.60
2022-08-30T05:59:15.881Z,17.60
2022-08-30T06:01:47.182Z,17.60
2022-08-30T06:04:16.400Z,17.60
2022-08-30T06:06:45.733Z,17.60
2022-08-30T06:09:17.021Z,17.70
2022-08-30T06:11:46.739Z,17.80
2022-08-30T06:14:16.549Z,17.80
2022-08-30T06:16:46.054Z,17.90
2022-08-30T06:19:16.068Z,17.90
2022-08-30T06:21:48.987Z,18.00
2022-08-30T06:24:27.805Z,18.00
2022-08-30T06:27:05.530Z,18.00
2022-08-30T06:29:34.447Z,17.90
2022-08-30T06:32:03.600Z,18.00
2022-08-30T06:34:32.360Z,18.00
2022-08-30T06:37:01.068Z,18.00
2022-08-30T06:39:31.325Z,18.00
2022-08-30T06:41:59.993Z,18.20
2022-08-30T06:44:32.208Z,18.20
2022-08-30T06:47:01.171Z,18.30
2022-08-30T06:49:30.132Z,18.40
2022-08-30T06:51:59.241Z,18.50
2022-08-30T06:54:28.264Z,18.60
2022-08-30T06:56:59.063Z,18.70
2022-08-30T06:59:28.628Z,18.80
2022-08-30T07:01:57.819Z,18.80
2022-08-30T07:04:27.611Z,18.90
2022-08-30T07:06:56.433Z,19.10
2022-08-30T07:09:25.523Z,19.20
2022-08-30T07:11:54.748Z,19.20
2022-08-30T07:14:25.327Z,19.30
2022-08-30T07:16:54.150Z,19.40
2022-08-30T07:19:23.216Z,19.50
2022-08-30T07:21:52.158Z,19.60
2022-08-30T07:24:21.676Z,19.60
2022-08-30T07:26:52.558Z,19.70
2022-08-30T07:29:22.152Z,19.90
2022-08-30T07:31:52.540Z,19.90
2022-08-30T07:34:22.477Z,20.00
2022-08-30T07:36:54.566Z,20.10
2022-08-30T07:39:23.550Z,20.20
2022-08-30T07:41:52.341Z,20.20
2022-08-30T07:44:23.233Z,20.30
2022-08-30T07:46:55.637Z,20.40
2022-08-30T07:49:24.691Z,20.70
2022-08-30T07:51:53.319Z,21.00
2022-08-30T07:54:22.192Z,21.10
2022-08-30T07:56:51.186Z,21.20
2022-08-30T07:59:20.270Z,21.30
2022-08-30T08:01:49.385Z,21.50
2022-08-30T08:04:19.698Z,21.70
2022-08-30T08:06:48.568Z,21.50
2022-08-30T08:09:18.298Z,21.70
2022-08-30T08:11:46.920Z,21.80
2022-08-30T08:16:44.993Z,22.10
2022-08-30T08:19:13.794Z,22.10
2022-08-30T08:21:43.906Z,22.10
2022-08-30T08:24:12.689Z,22.20
2022-08-30T08:26:45.286Z,22.20
2022-08-30T08:29:14.368Z,22.30
2022-08-30T08:31:43.309Z,22.40
2022-08-30T08:34:12.663Z,22.20
2022-08-30T08:36:44.120Z,22.40
2022-08-30T08:39:12.935Z,22.70
2022-08-30T08:41:54.426Z,22.80
2022-08-30T08:44:39.518Z,22.90
2022-08-30T08:47:13.991Z,22.80
2022-08-30T08:49:46.355Z,23.00
2022-08-30T08:52:39.085Z,23.10
2022-08-30T08:55:17.941Z,23.20
2022-08-30T08:57:47.233Z,23.10
2022-08-30T09:00:16.809Z,23.00
2022-08-30T09:02:48.852Z,23.20
2022-08-30T09:05:26.095Z,23.00
2022-08-30T09:08:05.543Z,23.40
2022-08-30T09:10:49.767Z,23.70
2022-08-30T09:13:22.935Z,23.80
2022-08-30T09:15:54.838Z,23.80
2022-08-30T09:18:45.632Z,23.90
2022-08-30T09:21:16.743Z,24.00
2022-08-30T09:23:56.275Z,24.00
2022-08-30T09:26:31.775Z,24.10
2022-08-30T09:29:01.303Z,24.40
2022-08-30T09:31:31.925Z,24.50
2022-08-30T09:34:03.630Z,24.60
2022-08-30T09:36:36.598Z,24.40
2022-08-30T09:39:16.440Z,24.60
2022-08-30T09:41:48.485Z,24.90
2022-08-30T09:44:20.717Z,24.90
2022-08-30T09:46:52.448Z,24.70
2022-08-30T09:49:33.986Z,24.90
2022-08-30T09:52:25.250Z,25.00
2022-08-30T09:55:18.126Z,25.40
2022-08-30T09:57:56.220Z,25.60
2022-08-30T10:00:29.182Z,26.00
2022-08-30T10:03:30.053Z,26.20
2022-08-30T10:06:12.851Z,26.90
2022-08-30T10:08:55.365Z,27.20
2022-08-30T10:11:32.109Z,27.60
2022-08-30T10:14:39.691Z,27.50
2022-08-30T10:17:17.432Z,27.60
2022-08-30T10:20:13.268Z,28.00
2022-08-30T10:22:48.431Z,28.30
2022-08-30T10:25:24.099Z,28.10
2022-08-30T10:27:57.944Z,27.50
2022-08-30T10:30:26.646Z,27.70
2022-08-30T10:33:02.473Z,28.30
2022-08-30T10:35:38.503Z,29.00
2022-08-30T10:38:13.369Z,29.00
2022-08-30T10:41:05.405Z,28.90
2022-08-30T10:43:44.994Z,29.00
2022-08-30T10:46:25.800Z,29.60
2022-08-30T10:48:56.505Z,28.90
2022-08-30T10:51:33.270Z,28.80
2022-08-30T10:54:11.398Z,28.70
2022-08-30T10:56:45.387Z,28.70
2022-08-30T10:59:19.171Z,28.90
2022-08-30T11:02:21.082Z,28.80
2022-08-30T11:05:24.111Z,28.40
2022-08-30T11:08:03.477Z,28.30
2022-08-30T11:10:49.887Z,28.00
2022-08-30T11:13:23.143Z,27.90
2022-08-30T11:16:06.184Z,28.70
2022-08-30T11:18:44.301Z,29.50
2022-08-30T11:21:24.785Z,30.00
2022-08-30T11:24:10.866Z,30.70
2022-08-30T11:27:03.619Z,30.40
2022-08-30T11:29:43.007Z,30.50
2022-08-30T11:32:39.498Z,31.10
2022-08-30T11:35:11.272Z,31.00
2022-08-30T11:37:45.435Z,30.60
2022-08-30T11:40:49.429Z,30.10
2022-08-30T11:43:56.378Z,30.00
2022-08-30T11:46:40.716Z,30.50
2022-08-30T11:49:31.747Z,31.30
2022-08-30T11:52:44.056Z,31.80
2022-08-30T11:55:48.672Z,31.60
2022-08-30T11:58:29.962Z,31.60
2022-08-30T12:04:27.189Z,30.90
2022-08-30T12:07:00.814Z,30.80
2022-08-30T12:10:06.497Z,31.20
2022-08-30T12:12:56.284Z,31.50
2022-08-30T12:15:57.903Z,32.00
2022-08-30T12:18:34.426Z,32.30
2022-08-30T12:21:15.962Z,32.60
2022-08-30T12:23:53.565Z,32.10
2022-08-30T12:26:34.852Z,31.70
2022-08-30T12:29:15.815Z,32.40
2022-08-30T12:31:48.827Z,32.30
2022-08-30T12:34:27.419Z,32.60
2022-08-30T12:37:00.254Z,33.00
2022-08-30T12:39:33.072Z,33.20
2022-08-30T12:42:17.812Z,33.10
2022-08-30T12:44:48.800Z,32.80
2022-08-30T12:47:21.365Z,33.10
2022-08-30T12:49:51.619Z,33.20
2022-08-30T12:52:24.366Z,33.00
2022-08-30T12:54:56.860Z,32.60
2022-08-30T12:57:40.916Z,32.30
2022-08-30T13:00:11.470Z,32.40
2022-08-30T13:02:46.938Z,32.00
2022-08-30T13:05:48.076Z,31.20
2022-08-30T13:08:22.374Z,31.30
2022-08-30T13:10:59.494Z,32.40
2022-08-30T13:13:35.509Z,32.80
2022-08-30T13:16:29.376Z,31.90
2022-08-30T13:19:25.142Z,32.30
2022-08-30T13:21:56.623Z,32.90
2022-08-30T13:24:25.974Z,33.60
2022-08-30T13:26:59.710Z,33.80
2022-08-30T13:29:30.183Z,33.50
2022-08-30T13:31:59.964Z,32.60
2022-08-30T13:34:33.439Z,32.40
2022-08-30T13:37:02.823Z,33.30
2022-08-30T13:39:31.649Z,33.00
2022-08-30T13:45:00.718Z,34.90
2022-08-30T13:47:44.170Z,33.70
2022-08-30T13:50:19.655Z,33.30
2022-08-30T13:52:49.837Z,32.90
2022-08-30T13:55:18.944Z,33.00
2022-08-30T13:57:55.244Z,32.60
2022-08-30T14:00:25.378Z,32.90
2022-08-30T14:02:57.663Z,33.10
2022-08-30T14:05:49.946Z,34.00
2022-08-30T14:11:11.996Z,35.10
2022-08-30T14:16:33.588Z,35.70
2022-08-30T14:19:03.353Z,36.40
2022-08-30T14:21:32.173Z,36.80
2022-08-30T14:24:01.925Z,36.60
2022-08-30T14:26:33.642Z,36.20
2022-08-30T14:29:05.359Z,35.70
2022-08-30T14:31:38.343Z,35.30
2022-08-30T14:34:09.150Z,35.40
2022-08-30T14:36:42.677Z,36.10
2022-08-30T14:39:14.796Z,36.50
2022-08-30T14:41:45.603Z,35.90
2022-08-30T14:44:18.853Z,34.60
2022-08-30T14:46:48.775Z,34.60
2022-08-30T14:49:21.022Z,35.50
2022-08-30T14:51:50.024Z,35.90
2022-08-30T14:54:22.620Z,35.50
2022-08-30T14:56:54.789Z,34.80
2022-08-30T14:59:26.672Z,34.50
2022-08-30T15:02:02.275Z,34.70
2022-08-30T15:17:11.608Z,35.30
2022-08-30T15:20:10.292Z,35.50
2022-08-30T15:27:36.789Z,32.70
2022-08-30T15:37:33.179Z,31.50
2022-08-30T15:40:10.233Z,30.60
2022-08-30T15:42:42.469Z,30.30
2022-08-30T15:45:15.211Z,29.90
2022-08-30T15:48:10.986Z,30.20
2022-08-30T15:51:24.595Z,31.50
2022-08-30T15:53:55.423Z,32.60
2022-08-30T16:02:58.925Z,32.70
2022-08-30T16:05:38.343Z,33.70
2022-08-30T16:08:23.879Z,33.40
2022-08-30T16:11:01.482Z,33.20
2022-08-30T16:13:42.355Z,33.60
2022-08-30T16:16:16.632Z,32.90
2022-08-30T16:18:54.180Z,32.50
2022-08-30T16:21:28.448Z,31.50
2022-08-30T16:24:02.452Z,31.60
2022-08-30T16:26:32.968Z,32.00
2022-08-30T16:29:06.053Z,32.10
2022-08-30T16:31:37.541Z,32.00
2022-08-30T16:34:07.209Z,31.50
2022-08-30T16:36:37.520Z,31.20
2022-08-30T16:39:13.068Z,30.40
2022-08-30T16:41:42.670Z,30.60
2022-08-30T16:44:13.658Z,31.20
2022-08-30T16:46:52.558Z,31.20
2022-08-30T16:49:22.829Z,30.00
2022-08-30T16:51:52.518Z,29.40
2022-08-30T16:54:23.357Z,29.00
2022-08-30T16:56:52.196Z,28.70
2022-08-30T16:59:20.813Z,28.20
2022-08-30T17:01:50.477Z,28.10
2022-08-30T17:04:19.964Z,27.70
2022-08-30T17:06:49.960Z,27.40
2022-08-30T17:09:19.744Z,27.30
2022-08-30T17:11:50.635Z,27.10
2022-08-30T17:14:27.942Z,26.90
2022-08-30T17:16:58.582Z,26.70
2022-08-30T17:19:29.789Z,26.40
2022-08-30T17:21:58.840Z,26.30
2022-08-30T17:24:28.097Z,26.00
2022-08-30T17:27:00.949Z,25.90
2022-08-30T17:29:29.643Z,25.90
2022-08-30T17:31:58.870Z,25.90
2022-08-30T17:34:28.858Z,25.80
2022-08-30T17:37:00.124Z,25.70
2022-08-30T17:39:30.337Z,25.50
2022-08-30T17:42:01.559Z,25.40
2022-08-30T17:44:32.675Z,25.30
2022-08-30T17:47:01.922Z,25.20
2022-08-30T17:49:33.315Z,25.00
2022-08-30T17:52:03.561Z,24.90
2022-08-30T17:54:35.552Z,24.80
2022-08-30T17:57:10.939Z,24.70
2022-08-30T17:59:40.518Z,24.60
2022-08-30T18:02:11.331Z,24.50
2022-08-30T18:04:41.914Z,24.40
2022-08-30T18:07:12.013Z,24.30
2022-08-30T18:09:41.859Z,24.20
2022-08-30T18:12:14.133Z,24.10
2022-08-30T18:14:42.736Z,24.00
2022-08-30T18:17:11.698Z,23.90
2022-08-30T18:19:45.846Z,23.90
2022-08-30T18:22:29.496Z,23.80
2022-08-30T18:25:02.226Z,23.70
2022-08-30T18:27:32.801Z,23.60
2022-08-30T18:30:11.461Z,23.50
2022-08-30T18:32:40.369Z,23.50
2022-08-30T18:35:10.545Z,23.40
2022-08-30T18:37:41.588Z,23.40
2022-08-30T18:40:16.989Z,23.40
2022-08-30T18:42:48.881Z,23.30
2022-08-30T18:45:17.810Z,23.40
2022-08-30T18:47:47.344Z,23.30
2022-08-30T18:50:18.858Z,23.10
2022-08-30T18:52:48.741Z,23.00
2022-08-30T18:55:17.570Z,22.90
2022-08-30T18:57:46.670Z,22.90
2022-08-30T19:00:18.197Z,22.80
2022-08-30T19:02:48.429Z,22.80
2022-08-30T19:05:19.069Z,22.70
2022-08-30T19:07:47.911Z,22.60
2022-08-30T19:10:21.103Z,22.60
2022-08-30T19:12:50.183Z,22.60
2022-08-30T19:15:20.430Z,22.60
2022-08-30T19:17:49.794Z,22.60
2022-08-30T19:20:21.183Z,22.50
2022-08-30T19:23:08.824Z,22.50
2022-08-30T19:25:40.430Z,22.50
2022-08-30T19:28:09.265Z,22.40
2022-08-30T19:30:40.068Z,22.30
2022-08-30T19:33:08.791Z,22.30
2022-08-30T19:35:40.320Z,22.30
2022-08-30T19:38:09.000Z,22.20
2022-08-30T19:40:37.759Z,22.20
2022-08-30T19:43:07.180Z,22.20
2022-08-30T19:45:36.484Z,22.20
2022-08-30T19:48:07.167Z,22.10
2022-08-30T19:50:36.646Z,22.10
2022-08-30T19:53:13.555Z,22.10
2022-08-30T19:55:42.240Z,22.10
2022-08-30T19:58:13.155Z,22.10
2022-08-30T20:14:27.050Z,21.90
2022-08-30T20:28:48.174Z,21.70
2022-08-30T20:31:19.687Z,21.70
2022-08-30T20:33:49.739Z,21.60
2022-08-30T20:36:18.250Z,21.50
2022-08-30T20:38:50.003Z,21.50
2022-08-30T20:41:20.526Z,21.40
2022-08-30T20:43:56.577Z,21.70
2022-08-30T20:46:33.899Z,21.60
2022-08-30T20:49:03.558Z,21.50
2022-08-30T20:51:32.157Z,21.50
2022-08-30T20:54:03.753Z,21.50
2022-08-30T20:56:34.430Z,21.40
2022-08-30T20:59:05.756Z,21.30
2022-08-30T21:01:38.264Z,21.30
2022-08-30T21:04:08.298Z,21.30
2022-08-30T21:06:37.775Z,21.20
2022-08-30T21:09:07.616Z,21.20
2022-08-30T21:11:38.187Z,21.30
2022-08-30T21:14:14.457Z,21.20
2022-08-30T21:16:43.227Z,21.30
2022-08-30T21:19:11.991Z,21.30
2022-08-30T21:21:40.848Z,21.30
2022-08-30T21:24:10.484Z,21.40
2022-08-30T21:26:40.204Z,21.30
2022-08-30T21:29:09.802Z,21.30
2022-08-30T21:31:40.092Z,21.30
2022-08-30T21:34:08.903Z,21.30
2022-08-30T21:36:47.302Z,21.30
2022-08-30T21:39:19.214Z,21.20
2022-08-30T21:41:48.416Z,21.30
2022-08-30T21:44:20.045Z,21.20
2022-08-30T21:46:52.361Z,21.30
2022-08-30T21:49:22.673Z,21.30
2022-08-30T21:51:53.669Z,21.30
2022-08-30T21:54:23.569Z,21.30
2022-08-30T21:56:54.451Z,21.30
2022-08-30T21:59:23.411Z,21.30
2022-08-30T22:01:57.678Z,21.20
2022-08-30T22:04:26.600Z,21.20
2022-08-30T22:06:55.358Z,21.30
2022-08-30T22:09:25.899Z,21.30
2022-08-30T22:11:54.964Z,21.20
2022-08-30T22:14:24.283Z,21.10
2022-08-30T22:16:55.252Z,21.10
2022-08-30T22:19:25.922Z,21.10
2022-08-30T22:22:01.251Z,21.10
2022-08-30T22:24:32.569Z,21.20
2022-08-30T22:27:02.586Z,21.10
2022-08-30T22:29:31.365Z,21.10
2022-08-30T22:32:00.190Z,21.10
2022-08-30T22:34:32.032Z,21.10
2022-08-30T22:37:00.772Z,21.00
2022-08-30T22:39:29.279Z,21.00
2022-08-30T22:41:58.018Z,21.00
2022-08-30T22:44:27.012Z,20.90
2022-08-30T22:46:55.641Z,20.90
2022-08-30T22:49:24.231Z,20.80
2022-08-30T22:51:54.554Z,20.80
2022-08-30T22:54:23.024Z,20.70
2022-08-30T22:56:51.522Z,20.60
2022-08-30T22:59:20.145Z,20.50
2022-08-30T23:01:51.250Z,20.50
2022-08-30T23:04:20.023Z,20.40
2022-08-30T23:06:50.142Z,20.40
2022-08-30T23:09:20.478Z,20.30
2022-08-30T23:11:51.064Z,20.30
2022-08-30T23:14:19.603Z,20.20
2022-08-30T23:16:49.259Z,20.10
2022-08-30T23:19:18.245Z,20.10
2022-08-30T23:21:46.683Z,20.00
2022-08-30T23:24:32.795Z,20.00
2022-08-30T23:27:20.407Z,20.00
2022-08-30T23:30:06.414Z,20.10
2022-08-30T23:32:52.049Z,20.20
2022-08-30T23:35:38.232Z,20.20
2022-08-30T23:38:25.378Z,20.20
2022-08-30T23:41:11.156Z,20.20
2022-08-30T23:43:58.183Z,20.20
2022-08-30T23:46:43.779Z,20.20
2022-08-30T23:49:30.060Z,20.20
2022-08-30T23:52:15.765Z,20.20
2022-08-30T23:55:01.802Z,20.10
2022-08-30T23:57:47.352Z,20.10
